Terminal Aerodrome Forecast
Issued by NWS Sioux Falls, SD

Home | Current Version | Previous Version | Graphics & Text | Print | Product List | Glossary On
Versions: 1 2 3 4 5 6 7 8 9 10 11 12 13
000
FTUS43 KFSD 052343
TAFFSD
TAF
KFSD 052343Z 0600/0624 16014G20KT P6SM SCT060 BKN150
     FM060200 15011KT P6SM FEW040 OVC150
     FM060700 11011KT P6SM VCTS SCT020CB OVC080
      TEMPO 0608/0610 VRB20G40KT 4SM TSRA OVC020CB
     FM061000 02010KT P6SM -SHRA OVC020
     FM061400 35016G22KT 6SM SHRA OVC030
     FM061700 35018G25KT P6SM SCT030 BKN100=

USA.gov is the U.S. government's official web portal to all federal, state and local government web resources and services.